Time;durP1;ratioP1;P1;durP2;ratioP2;P2;SDS_P1;SDS_P2;PMS_P1;PMS_P2;Temp;Humidity;BMP_temperature;BMP_pressure;BME280_temperature;BME280_humidity;BME280_pressure;Samples;Min_cycle;Max_cycle;Signal;HPM_P1;HPM_P2
2021/03/31 00:01:39;;;;;;;8.07;3.85;;;3.40;99.90;;;;;;5072384;28;20063;-83
2021/03/31 00:04:06;;;;;;;7.35;3.85;;;3.50;99.90;;;;;;5072211;28;20505;-83
2021/03/31 00:06:33;;;;;;;6.38;3.60;;;3.50;99.90;;;;;;5072556;28;20512;-82
2021/03/31 00:08:59;;;;;;;4.35;3.75;;;3.60;99.90;;;;;;5072156;28;20580;-83
2021/03/31 00:11:26;;;;;;;7.55;3.90;;;3.60;99.90;;;;;;5072546;28;20412;-83
2021/03/31 00:13:52;;;;;;;7.70;3.67;;;3.60;99.90;;;;;;5076052;28;20071;-83
2021/03/31 00:16:18;;;;;;;10.55;4.32;;;3.60;99.90;;;;;;5075819;28;20044;-83
2021/03/31 00:18:45;;;;;;;6.03;3.58;;;3.60;99.90;;;;;;5075998;28;20054;-83
2021/03/31 00:21:11;;;;;;;6.38;3.88;;;3.60;99.90;;;;;;5076690;28;20044;-83
2021/03/31 00:23:37;;;;;;;4.97;3.63;;;3.60;99.90;;;;;;5075914;28;20059;-83
2021/03/31 00:26:04;;;;;;;6.03;3.97;;;3.50;99.90;;;;;;5075665;28;20049;-83
2021/03/31 00:28:30;;;;;;;5.13;3.45;;;3.30;99.90;;;;;;5079323;28;20048;-83
2021/03/31 00:30:57;;;;;;;7.00;3.30;;;3.20;99.90;;;;;;5099601;28;20028;-83
2021/03/31 00:33:23;;;;;;;6.40;3.70;;;3.20;99.90;;;;;;5099650;28;20045;-83
2021/03/31 00:35:49;;;;;;;9.18;4.20;;;3.20;99.90;;;;;;5099934;28;20048;-83
2021/03/31 00:38:16;;;;;;;7.07;3.47;;;3.00;99.90;;;;;;5094890;28;20074;-83
2021/03/31 00:40:49;;;;;;;9.32;3.75;;;2.90;99.90;;;;;;5088923;28;20052;-83
2021/03/31 00:43:20;;;;;;;4.05;3.70;;;2.80;99.90;;;;;;5087682;28;20062;-83
2021/03/31 00:45:47;;;;;;;7.55;3.63;;;2.70;99.90;;;;;;5088037;28;20513;-83
2021/03/31 00:48:15;;;;;;;5.18;3.80;;;2.70;99.90;;;;;;5087782;28;20044;-83
2021/03/31 00:50:47;;;;;;;16.38;4.78;;;2.70;99.90;;;;;;5087779;28;20044;-83
2021/03/31 00:53:17;;;;;;;11.93;4.28;;;2.80;99.90;;;;;;5090494;28;20052;-84
2021/03/31 00:55:44;;;;;;;7.15;3.90;;;2.90;99.90;;;;;;5089200;28;20055;-84
2021/03/31 00:58:11;;;;;;;4.20;3.78;;;2.90;99.90;;;;;;5089091;28;20060;-84
2021/03/31 01:00:37;;;;;;;4.40;3.70;;;2.80;99.90;;;;;;5088596;28;20055;-84
2021/03/31 01:03:04;;;;;;;9.07;4.50;;;2.90;99.90;;;;;;5090053;28;20048;-84
2021/03/31 01:05:31;;;;;;;5.60;3.97;;;2.80;99.90;;;;;;5089286;28;20076;-84
2021/03/31 01:07:57;;;;;;;4.63;3.60;;;2.80;99.90;;;;;;5092094;28;20040;-84
2021/03/31 01:10:32;;;;;;;9.52;4.43;;;2.90;99.90;;;;;;5090937;28;20036;-85
2021/03/31 01:13:01;;;;;;;7.00;4.40;;;2.90;99.90;;;;;;5095055;28;20082;-84
2021/03/31 01:15:39;;;;;;;7.32;3.90;;;2.90;99.90;;;;;;5079979;28;20120;-84
2021/03/31 01:18:33;;;;;;;5.32;3.67;;;2.90;99.90;;;;;;5076822;28;20048;-83
2021/03/31 01:21:41;;;;;;;5.80;3.83;;;2.80;99.90;;;;;;5075281;28;20052;-83
2021/03/31 01:24:40;;;;;;;5.82;3.80;;;2.70;99.90;;;;;;5073936;28;20524;-83
2021/03/31 01:27:18;;;;;;;3.85;3.53;;;2.50;99.90;;;;;;5076182;28;20075;-83
2021/03/31 01:30:11;;;;;;;7.63;4.28;;;2.40;99.90;;;;;;5075489;28;20509;-83
2021/03/31 01:33:00;;;;;;;6.43;4.13;;;2.20;99.90;;;;;;5074629;28;20080;-83
2021/03/31 01:35:27;;;;;;;5.55;3.80;;;2.10;99.90;;;;;;5075042;28;20084;-83
2021/03/31 01:37:59;;;;;;;7.72;4.68;;;2.00;99.90;;;;;;5076392;28;20048;-83
2021/03/31 01:40:27;;;;;;;7.35;4.47;;;1.90;99.90;;;;;;5076681;28;20049;-83
2021/03/31 01:43:01;;;;;;;8.32;4.03;;;2.00;99.90;;;;;;5074828;28;20048;-83
2021/03/31 01:45:32;;;;;;;7.32;4.00;;;2.00;99.90;;;;;;5074388;28;20045;-83
2021/03/31 01:48:02;;;;;;;8.88;4.25;;;2.00;99.90;;;;;;5074754;28;20524;-83
2021/03/31 01:50:31;;;;;;;12.57;5.30;;;2.00;99.90;;;;;;5074446;28;20060;-83
2021/03/31 01:52:59;;;;;;;11.45;4.78;;;2.00;99.90;;;;;;5074519;28;20049;-83
2021/03/31 01:55:27;;;;;;;11.45;4.47;;;2.00;99.90;;;;;;5074373;28;20464;-83
2021/03/31 01:57:54;;;;;;;8.73;4.72;;;1.90;99.90;;;;;;5074223;28;20084;-83
2021/03/31 02:00:21;;;;;;;8.00;4.60;;;1.90;99.90;;;;;;5073884;28;20102;-83
2021/03/31 02:02:51;;;;;;;5.45;4.22;;;1.90;99.90;;;;;;5074868;28;20467;-83
2021/03/31 02:05:18;;;;;;;6.65;4.07;;;1.90;99.90;;;;;;5074817;28;20071;-83
2021/03/31 02:07:46;;;;;;;8.20;4.25;;;1.90;99.90;;;;;;5074663;28;20068;-83
2021/03/31 02:10:14;;;;;;;9.82;4.57;;;1.80;99.90;;;;;;5075959;28;20048;-83
2021/03/31 02:12:42;;;;;;;5.97;4.25;;;1.80;99.90;;;;;;5073798;28;20049;-83
2021/03/31 02:15:12;;;;;;;8.60;4.20;;;1.80;99.90;;;;;;5075169;28;20516;-84
2021/03/31 02:17:40;;;;;;;9.43;4.57;;;1.90;99.90;;;;;;5074026;28;20049;-84
2021/03/31 02:20:08;;;;;;;7.88;4.63;;;1.70;99.90;;;;;;5073624;28;20452;-82
2021/03/31 02:22:36;;;;;;;8.02;3.97;;;1.80;99.90;;;;;;5073853;28;20453;-84
2021/03/31 02:25:05;;;;;;;9.30;4.72;;;1.80;99.90;;;;;;5073786;28;20048;-84
2021/03/31 02:27:32;;;;;;;6.60;4.93;;;1.90;99.90;;;;;;5074619;28;20054;-84
2021/03/31 02:29:59;;;;;;;8.63;4.22;;;1.80;99.90;;;;;;5075223;28;20075;-84
2021/03/31 02:32:27;;;;;;;9.38;4.10;;;1.80;99.90;;;;;;5073037;28;20083;-83
2021/03/31 02:34:55;;;;;;;8.65;4.15;;;1.80;99.90;;;;;;5073345;28;20111;-84
2021/03/31 02:37:22;;;;;;;8.90;4.57;;;1.80;99.90;;;;;;5072469;28;20099;-83
2021/03/31 02:39:50;;;;;;;7.10;4.32;;;1.70;99.90;;;;;;5074299;28;20083;-84
2021/03/31 02:42:20;;;;;;;7.63;4.53;;;1.70;99.90;;;;;;5073432;28;20052;-84
2021/03/31 02:44:49;;;;;;;5.97;4.20;;;1.70;99.90;;;;;;5074717;28;20421;-83
2021/03/31 02:47:21;;;;;;;5.57;4.43;;;1.60;99.90;;;;;;5073636;28;20044;-83
2021/03/31 02:49:50;;;;;;;9.45;5.00;;;1.60;99.90;;;;;;5073513;28;20048;-84
2021/03/31 02:52:19;;;;;;;6.43;4.30;;;1.50;99.90;;;;;;5074222;28;20051;-83
2021/03/31 02:54:47;;;;;;;9.55;4.18;;;1.40;99.90;;;;;;5073644;28;20128;-84
2021/03/31 02:57:14;;;;;;;5.25;4.32;;;1.40;99.90;;;;;;5074172;28;20048;-84
2021/03/31 02:59:42;;;;;;;6.55;4.50;;;1.40;99.90;;;;;;5073139;28;20048;-84
2021/03/31 03:02:09;;;;;;;5.28;4.65;;;1.40;99.90;;;;;;5074435;28;20117;-83
2021/03/31 03:04:37;;;;;;;6.55;4.25;;;1.40;99.90;;;;;;5074322;28;20472;-83
2021/03/31 03:07:06;;;;;;;7.00;4.32;;;1.30;99.90;;;;;;5072869;28;20072;-83
2021/03/31 03:09:33;;;;;;;6.07;4.13;;;1.30;99.90;;;;;;5072679;28;20045;-83
2021/03/31 03:12:00;;;;;;;6.57;4.30;;;1.30;99.90;;;;;;5074551;28;20076;-83
2021/03/31 03:14:29;;;;;;;6.15;4.07;;;1.30;99.90;;;;;;5073371;28;20512;-83
2021/03/31 03:16:56;;;;;;;11.10;5.10;;;1.20;99.90;;;;;;5073849;28;20140;-83
2021/03/31 03:19:22;;;;;;;6.70;4.88;;;1.30;99.90;;;;;;5072910;28;20512;-83
2021/03/31 03:21:50;;;;;;;8.93;4.95;;;1.40;99.90;;;;;;5074096;28;20501;-83
2021/03/31 03:24:17;;;;;;;11.55;5.28;;;1.40;99.90;;;;;;5074628;28;20045;-83
2021/03/31 03:26:44;;;;;;;12.93;5.15;;;1.30;99.90;;;;;;5072878;28;20417;-83
2021/03/31 03:29:11;;;;;;;5.63;4.72;;;1.20;99.90;;;;;;5074171;28;20118;-83
2021/03/31 03:31:38;;;;;;;10.95;5.68;;;1.20;99.90;;;;;;5073968;28;20045;-83
2021/03/31 03:34:08;;;;;;;6.28;5.07;;;1.10;99.90;;;;;;5072526;28;20080;-83
2021/03/31 03:36:39;;;;;;;10.05;5.30;;;1.20;99.90;;;;;;5072444;28;20049;-84
2021/03/31 03:39:05;;;;;;;12.68;5.55;;;1.10;99.90;;;;;;5072723;28;20048;-84
2021/03/31 03:41:34;;;;;;;10.23;5.65;;;1.20;99.90;;;;;;5074348;28;20525;-84
2021/03/31 03:44:02;;;;;;;11.88;5.50;;;1.20;99.90;;;;;;5073660;28;20471;-83
2021/03/31 03:46:31;;;;;;;10.80;5.93;;;1.30;99.90;;;;;;5072477;28;20230;-84
2021/03/31 03:48:59;;;;;;;8.38;5.65;;;1.30;99.90;;;;;;5076132;28;20098;-83
2021/03/31 03:51:26;;;;;;;11.65;5.65;;;1.30;99.90;;;;;;5077983;28;20045;-84
2021/03/31 03:53:56;;;;;;;9.05;5.63;;;1.30;99.90;;;;;;5076833;28;20427;-83
2021/03/31 03:56:23;;;;;;;9.18;5.05;;;1.30;99.90;;;;;;5076210;28;20087;-84
2021/03/31 03:58:49;;;;;;;7.45;5.30;;;1.20;99.90;;;;;;5077606;28;20071;-83
2021/03/31 04:01:16;;;;;;;8.82;5.15;;;1.30;99.90;;;;;;5077161;28;20076;-84
2021/03/31 04:03:43;;;;;;;11.10;5.45;;;1.30;99.90;;;;;;5076836;28;20102;-84
2021/03/31 04:06:09;;;;;;;7.30;4.95;;;1.40;99.90;;;;;;5076440;28;20239;-82
2021/03/31 04:08:37;;;;;;;11.20;5.78;;;1.40;99.90;;;;;;5076261;28;20044;-84
2021/03/31 04:11:04;;;;;;;9.57;5.88;;;1.30;99.90;;;;;;5077356;28;20439;-84
2021/03/31 04:13:33;;;;;;;13.57;5.63;;;1.30;99.90;;;;;;5076373;28;20048;-83
2021/03/31 04:16:04;;;;;;;18.45;6.15;;;1.40;99.90;;;;;;5076504;28;20057;-84
2021/03/31 04:18:32;;;;;;;8.80;5.75;;;1.40;99.90;;;;;;5076198;28;20411;-84
2021/03/31 04:21:00;;;;;;;28.73;19.13;;;1.40;99.90;;;;;;5077242;28;20059;-83
2021/03/31 04:23:27;;;;;;;31.13;19.58;;;1.40;99.90;;;;;;5077887;28;20052;-82
2021/03/31 04:25:57;;;;;;;26.55;18.08;;;1.40;99.90;;;;;;5077926;28;20057;-83
2021/03/31 04:28:27;;;;;;;21.85;12.88;;;1.50;99.90;;;;;;5078255;28;20521;-83
2021/03/31 04:30:55;;;;;;;18.58;12.30;;;1.40;99.90;;;;;;5076847;28;20072;-84
2021/03/31 04:33:23;;;;;;;20.27;9.77;;;1.50;99.90;;;;;;5077847;28;20051;-83
2021/03/31 04:35:53;;;;;;;11.73;8.52;;;1.50;99.90;;;;;;5076756;28;20067;-83
2021/03/31 04:38:20;;;;;;;16.55;9.07;;;1.40;99.90;;;;;;5076611;28;20059;-84
2021/03/31 04:41:01;;;;;;;14.50;7.40;;;1.50;99.90;;;;;;5075847;28;20083;-83
2021/03/31 04:43:31;;;;;;;15.95;6.60;;;1.50;99.90;;;;;;5075857;28;20054;-83
2021/03/31 04:45:58;;;;;;;17.33;7.35;;;1.60;99.90;;;;;;5076187;28;20048;-83
2021/03/31 04:48:26;;;;;;;12.25;6.85;;;1.60;99.90;;;;;;5075913;28;20045;-83
2021/03/31 04:50:53;;;;;;;14.10;7.03;;;1.60;99.90;;;;;;5077144;28;20084;-84
2021/03/31 04:53:19;;;;;;;12.30;6.90;;;1.50;99.90;;;;;;5077043;28;20471;-83
2021/03/31 04:55:45;;;;;;;10.85;6.32;;;1.50;99.90;;;;;;5077113;28;20040;-84
2021/03/31 04:58:13;;;;;;;16.20;7.45;;;1.50;99.90;;;;;;5074851;28;20049;-83
2021/03/31 05:00:39;;;;;;;15.07;6.40;;;1.40;99.90;;;;;;5074767;28;20102;-83
2021/03/31 05:03:06;;;;;;;14.13;7.15;;;1.40;99.90;;;;;;5075741;28;20504;-83
2021/03/31 05:05:37;;;;;;;13.65;6.95;;;1.50;99.90;;;;;;5076176;28;20052;-83
2021/03/31 05:08:04;;;;;;;14.38;7.65;;;1.50;99.90;;;;;;5075609;28;20048;-83
2021/03/31 05:10:30;;;;;;;15.88;6.78;;;1.70;99.90;;;;;;5076353;28;20048;-83
2021/03/31 05:12:56;;;;;;;14.98;7.70;;;1.70;99.90;;;;;;5077227;28;20040;-83
2021/03/31 05:15:23;;;;;;;13.23;6.60;;;1.80;99.90;;;;;;5075261;28;20051;-84
2021/03/31 05:17:49;;;;;;;9.77;6.43;;;1.80;99.90;;;;;;5075344;28;20052;-83
2021/03/31 05:20:15;;;;;;;11.73;6.97;;;1.80;99.90;;;;;;5076575;28;20048;-83
2021/03/31 05:22:42;;;;;;;11.00;7.28;;;1.90;99.90;;;;;;5076087;28;20107;-83
2021/03/31 05:25:10;;;;;;;13.40;7.47;;;1.90;99.90;;;;;;5075885;28;20052;-83
2021/03/31 05:27:37;;;;;;;15.65;7.75;;;2.10;99.90;;;;;;5076803;28;20394;-83
2021/03/31 05:30:06;;;;;;;16.17;7.38;;;2.20;99.90;;;;;;5075820;28;20052;-83
2021/03/31 05:32:32;;;;;;;13.73;7.72;;;2.30;99.90;;;;;;5075610;28;20071;-83
2021/03/31 05:34:58;;;;;;;15.18;7.90;;;2.40;99.90;;;;;;5075613;28;20529;-83
2021/03/31 05:37:25;;;;;;;15.88;7.25;;;2.40;99.90;;;;;;5075559;28;20405;-83
2021/03/31 05:39:51;;;;;;;15.38;7.60;;;2.50;99.90;;;;;;5075042;28;20498;-83
2021/03/31 05:42:18;;;;;;;16.27;7.50;;;2.60;99.90;;;;;;5076596;28;20051;-84
2021/03/31 05:44:45;;;;;;;24.08;7.63;;;2.70;99.90;;;;;;5075088;28;20048;-84
2021/03/31 05:47:29;;;;;;;13.80;7.57;;;2.80;99.90;;;;;;5074988;28;20048;-84
2021/03/31 05:49:56;;;;;;;19.23;7.45;;;3.00;99.90;;;;;;5075029;28;20460;-83
2021/03/31 05:52:23;;;;;;;18.80;7.25;;;3.10;99.90;;;;;;5075109;28;20048;-84
2021/03/31 05:54:51;;;;;;;16.70;7.20;;;3.30;99.90;;;;;;5074826;28;20108;-84
2021/03/31 05:57:18;;;;;;;11.57;6.30;;;3.50;99.90;;;;;;5075466;28;20515;-84
2021/03/31 05:59:45;;;;;;;12.93;6.45;;;3.80;99.90;;;;;;5074665;28;20052;-84
2021/03/31 06:02:14;;;;;;;14.57;6.68;;;4.10;99.90;;;;;;5074699;28;20177;-84
2021/03/31 06:04:41;;;;;;;20.10;5.47;;;5.00;99.90;;;;;;5074820;28;20056;-84
2021/03/31 06:07:09;;;;;;;16.45;4.72;;;6.00;99.90;;;;;;5074469;28;20052;-84
2021/03/31 06:09:55;;;;;;;15.80;3.67;;;7.10;99.90;;;;;;5074824;28;20477;-84
2021/03/31 06:12:30;;;;;;;9.93;3.20;;;7.70;99.90;;;;;;5075880;28;20044;-84
2021/03/31 06:15:24;;;;;;;17.63;3.40;;;8.40;99.90;;;;;;5076091;28;20048;-84
2021/03/31 06:17:53;;;;;;;13.85;3.53;;;8.70;99.90;;;;;;5073190;28;20048;-84
2021/03/31 06:20:42;;;;;;;64.22;20.88;;;8.70;99.90;;;;;;5073592;28;20148;-84
2021/03/31 06:26:27;;;;;;;64.93;22.90;;;9.30;99.90;;;;;;5075641;28;20055;-83
2021/03/31 06:29:06;;;;;;;240.95;65.60;;;10.00;99.90;;;;;;5074161;28;20052;-84
2021/03/31 06:31:39;;;;;;;272.23;63.75;;;9.70;99.90;;;;;;5074157;28;20045;-84
2021/03/31 06:34:08;;;;;;;231.65;67.55;;;9.20;99.90;;;;;;5074612;28;20040;-84
2021/03/31 06:36:40;;;;;;;104.68;30.60;;;9.50;99.90;;;;;;5074074;28;20041;-84
2021/03/31 06:39:33;;;;;;;68.80;21.48;;;9.70;99.90;;;;;;5074397;28;20061;-84
2021/03/31 06:42:13;;;;;;;639.75;194.40;;;9.90;99.90;;;;;;5074089;28;20471;-85
2021/03/31 06:45:13;;;;;;;384.08;115.53;;;10.00;99.90;;;;;;5074486;28;20053;-84
2021/03/31 06:47:58;;;;;;;224.95;78.10;;;9.90;99.90;;;;;;5073759;28;20048;-84
2021/03/31 06:50:25;;;;;;;111.20;35.47;;;10.20;99.90;;;;;;5075552;28;20087;-84
2021/03/31 06:52:54;;;;;;;41.75;13.30;;;10.20;99.90;;;;;;5074162;28;20048;-84
2021/03/31 06:55:21;;;;;;;114.75;38.45;;;10.50;99.90;;;;;;5073759;28;20056;-85
2021/03/31 06:57:53;;;;;;;132.95;44.20;;;10.50;99.90;;;;;;5074022;28;20457;-84
2021/03/31 07:00:34;;;;;;;177.63;55.38;;;10.60;99.90;;;;;;5075532;28;20051;-84
2021/03/31 07:03:07;;;;;;;96.95;25.58;;;11.00;99.90;;;;;;5075519;28;20103;-84
2021/03/31 07:05:39;;;;;;;498.23;131.25;;;11.30;99.90;;;;;;5073710;28;20048;-84
2021/03/31 07:08:11;;;;;;;36.17;9.00;;;12.40;99.90;;;;;;5074954;28;20489;-84
2021/03/31 07:10:54;;;;;;;150.98;41.00;;;13.60;99.90;;;;;;5076830;28;20067;-84
2021/03/31 07:13:39;;;;;;;181.57;51.55;;;13.90;99.90;;;;;;5074133;28;20098;-82
2021/03/31 07:16:06;;;;;;;229.85;68.22;;;14.30;99.90;;;;;;5074588;28;20051;-82
2021/03/31 07:18:34;;;;;;;151.70;45.60;;;13.80;99.90;;;;;;5073685;28;20057;-82
2021/03/31 07:21:00;;;;;;;83.40;23.90;;;13.60;99.90;;;;;;5074063;28;20052;-82
2021/03/31 07:23:27;;;;;;;124.97;46.47;;;13.70;99.90;;;;;;5077125;28;20098;-82
2021/03/31 07:25:56;;;;;;;309.42;97.63;;;14.90;99.90;;;;;;5078363;28;20044;-82
2021/03/31 07:28:28;;;;;;;335.52;99.70;;;15.50;97.10;;;;;;5079453;28;20091;-82
2021/03/31 07:30:56;;;;;;;106.90;30.17;;;15.70;95.00;;;;;;5078562;28;20053;-83
2021/03/31 07:33:29;;;;;;;26.10;5.05;;;16.10;92.40;;;;;;5077880;28;20550;-82
2021/03/31 07:35:56;;;;;;;18.10;4.82;;;17.30;90.60;;;;;;5078013;28;20084;-82
2021/03/31 07:38:25;;;;;;;171.23;50.97;;;19.50;76.50;;;;;;5078205;28;20080;-82
2021/03/31 07:40:52;;;;;;;32.55;9.20;;;20.70;70.20;;;;;;5078055;28;20048;-82
2021/03/31 07:43:29;;;;;;;11.00;3.70;;;22.00;63.80;;;;;;5077658;28;20477;-83
2021/03/31 07:46:25;;;;;;;15.10;4.40;;;22.20;60.40;;;;;;5077842;28;20070;-82
2021/03/31 07:48:52;;;;;;;252.13;84.80;;;23.40;58.90;;;;;;5078321;28;20102;-82
2021/03/31 07:51:21;;;;;;;28.17;5.50;;;23.60;55.50;;;;;;5077694;28;20102;-83
2021/03/31 07:53:49;;;;;;;99.60;36.17;;;23.70;55.10;;;;;;5079338;28;20084;-82
2021/03/31 07:56:19;;;;;;;72.97;26.40;;;24.90;52.90;;;;;;5078592;28;20121;-82
2021/03/31 07:59:11;;;;;;;129.85;54.63;;;23.60;53.10;;;;;;5077719;28;20071;-82
2021/03/31 08:01:39;;;;;;;85.05;37.00;;;22.90;54.80;;;;;;5079321;28;20456;-83
2021/03/31 08:04:07;;;;;;;60.30;20.48;;;22.10;55.00;;;;;;5080713;28;20048;-82
2021/03/31 08:06:38;;;;;;;52.33;18.23;;;23.10;55.60;;;;;;5077915;28;20048;-83
2021/03/31 08:09:10;;;;;;;57.13;21.80;;;23.90;53.60;;;;;;5078866;28;20040;-82
2021/03/31 08:11:39;;;;;;;178.45;90.28;;;24.20;53.60;;;;;;5077701;28;20044;-82
2021/03/31 08:14:08;;;;;;;57.97;24.85;;;23.40;52.60;;;;;;5078166;28;20052;-82
2021/03/31 08:16:41;;;;;;;13.80;3.60;;;23.40;52.90;;;;;;5078079;28;20155;-82
2021/03/31 08:19:13;;;;;;;28.83;8.90;;;23.70;53.50;;;;;;5078202;28;20048;-83
2021/03/31 08:21:41;;;;;;;34.45;13.98;;;25.50;50.70;;;;;;5077315;28;20060;-82
2021/03/31 08:24:08;;;;;;;20.40;6.28;;;26.00;50.50;;;;;;5077392;28;20052;-82
2021/03/31 08:26:43;;;;;;;51.65;17.90;;;26.20;49.40;;;;;;5077694;28;20467;-82
2021/03/31 08:29:33;;;;;;;55.42;25.63;;;26.80;48.00;;;;;;5077785;28;20416;-82
2021/03/31 08:32:03;;;;;;;87.95;40.40;;;26.80;47.90;;;;;;5078223;28;20051;-83
2021/03/31 08:34:31;;;;;;;88.55;46.70;;;27.20;47.50;;;;;;5077179;28;20044;-83
2021/03/31 08:36:59;;;;;;;40.83;18.10;;;27.60;46.60;;;;;;5076890;28;20051;-82
2021/03/31 08:39:26;;;;;;;91.53;48.97;;;28.90;44.90;;;;;;5076949;28;20103;-83
2021/03/31 08:41:57;;;;;;;38.30;16.20;;;28.40;44.00;;;;;;5077040;28;20109;-82
2021/03/31 08:44:55;;;;;;;30.95;12.80;;;28.70;44.00;;;;;;5076735;28;20044;-82
2021/03/31 08:47:21;;;;;;;35.13;9.07;;;30.10;42.50;;;;;;5077642;28;20060;-82
2021/03/31 08:49:49;;;;;;;32.50;15.45;;;30.50;43.30;;;;;;5077471;28;20047;-82
2021/03/31 08:52:20;;;;;;;20.58;8.98;;;31.50;41.20;;;;;;5076565;28;20459;-81
2021/03/31 08:54:53;;;;;;;34.47;16.15;;;32.70;40.40;;;;;;5076427;28;20051;-82
2021/03/31 08:57:23;;;;;;;29.17;13.13;;;33.10;38.70;;;;;;5075980;28;20440;-83
2021/03/31 08:59:51;;;;;;;34.78;23.02;;;32.90;38.90;;;;;;5077515;28;20072;-83
2021/03/31 09:02:23;;;;;;;32.67;15.93;;;32.60;38.50;;;;;;5076079;28;20087;-83
2021/03/31 09:05:00;;;;;;;26.52;11.40;;;33.40;37.40;;;;;;5077775;28;20053;-83
2021/03/31 09:07:26;;;;;;;23.25;9.25;;;33.40;38.20;;;;;;5076089;28;20422;-83
2021/03/31 09:09:53;;;;;;;22.60;7.63;;;34.30;38.40;;;;;;5077481;28;20500;-83
2021/03/31 09:12:25;;;;;;;50.72;14.45;;;35.00;35.80;;;;;;5078320;28;20076;-84
2021/03/31 09:14:54;;;;;;;20.23;8.77;;;35.70;35.60;;;;;;5077234;28;20122;-83
2021/03/31 09:17:20;;;;;;;14.13;7.05;;;34.60;32.60;;;;;;5079594;28;20045;-82
2021/03/31 09:19:50;;;;;;;14.57;6.88;;;35.20;30.90;;;;;;5077261;28;20122;-82
2021/03/31 09:22:23;;;;;;;10.18;6.95;;;34.10;30.60;;;;;;5077418;28;20076;-82
2021/03/31 09:25:00;;;;;;;13.37;7.03;;;32.30;30.30;;;;;;5078845;28;20049;-82
2021/03/31 09:27:32;;;;;;;13.70;6.72;;;31.20;32.40;;;;;;5077191;28;20455;-83
2021/03/31 09:30:02;;;;;;;12.93;7.30;;;30.50;32.50;;;;;;5077493;28;20048;-82
2021/03/31 09:32:36;;;;;;;20.27;6.72;;;29.90;33.40;;;;;;5078309;28;20110;-82
2021/03/31 09:35:10;;;;;;;12.23;6.18;;;29.80;33.10;;;;;;5077933;28;20095;-82
2021/03/31 09:37:50;;;;;;;20.17;6.30;;;30.20;33.20;;;;;;5077459;28;20055;-82
2021/03/31 09:40:37;;;;;;;15.25;7.85;;;30.20;33.20;;;;;;5078239;28;20044;-82
2021/03/31 09:43:07;;;;;;;9.35;6.00;;;30.40;33.20;;;;;;5077718;28;20040;-83
2021/03/31 09:45:37;;;;;;;12.95;5.70;;;30.00;32.50;;;;;;5076239;28;20066;-84
2021/03/31 09:48:05;;;;;;;6.20;5.00;;;29.70;33.30;;;;;;5076017;28;20049;-83
2021/03/31 09:50:35;;;;;;;11.57;5.30;;;30.00;32.80;;;;;;5076159;28;20106;-82
2021/03/31 09:53:04;;;;;;;8.98;4.95;;;30.50;32.00;;;;;;5075632;28;20048;-83
2021/03/31 09:55:31;;;;;;;6.78;4.38;;;30.60;32.70;;;;;;5076960;28;20061;-82
2021/03/31 09:58:02;;;;;;;6.55;4.90;;;30.80;31.40;;;;;;5075247;28;20429;-83
2021/03/31 10:00:33;;;;;;;7.90;4.90;;;31.00;31.80;;;;;;5076664;28;20131;-82
2021/03/31 10:03:01;;;;;;;7.18;5.00;;;30.90;31.80;;;;;;5075787;28;20143;-82
2021/03/31 10:05:27;;;;;;;10.77;6.03;;;31.40;31.70;;;;;;5075441;28;20118;-83
2021/03/31 10:08:06;;;;;;;9.10;5.68;;;31.20;31.60;;;;;;5075366;28;20420;-83
2021/03/31 10:10:38;;;;;;;8.43;5.00;;;31.40;30.90;;;;;;5076843;28;20059;-82
2021/03/31 10:13:05;;;;;;;9.45;5.00;;;31.00;30.90;;;;;;5075205;28;20048;-82
2021/03/31 10:15:32;;;;;;;9.32;5.00;;;31.50;32.10;;;;;;5074979;28;20050;-83
2021/03/31 10:17:58;;;;;;;16.40;5.32;;;32.20;31.10;;;;;;5073999;28;20049;-83
2021/03/31 10:20:31;;;;;;;14.80;5.30;;;33.30;30.60;;;;;;5075441;28;20076;-82
2021/03/31 10:22:57;;;;;;;13.07;5.30;;;34.10;29.80;;;;;;5074709;28;20126;-83
2021/03/31 10:25:43;;;;;;;17.10;5.10;;;34.50;30.10;;;;;;5075971;28;20052;-82
2021/03/31 10:28:37;;;;;;;23.50;6.18;;;35.00;28.70;;;;;;5075090;28;20063;-83
2021/03/31 10:31:27;;;;;;;8.55;5.05;;;33.60;28.80;;;;;;5075136;28;20055;-83
2021/03/31 10:34:14;;;;;;;11.10;5.70;;;33.30;29.20;;;;;;5074999;28;20076;-82
2021/03/31 10:37:08;;;;;;;10.40;4.88;;;32.30;29.20;;;;;;5075143;28;20054;-82
2021/03/31 10:51:31;;;;;;;10.52;5.00;;;34.00;29.40;;;;;;5079473;28;20094;-83
2021/03/31 10:54:05;;;;;;;8.75;5.20;;;33.60;29.00;;;;;;5074268;28;20131;-83
2021/03/31 10:56:34;;;;;;;7.78;5.03;;;33.20;29.20;;;;;;5073293;28;20186;-83
2021/03/31 10:59:03;;;;;;;6.82;4.50;;;33.10;29.40;;;;;;5073714;28;20519;-82
2021/03/31 11:01:29;;;;;;;6.50;4.60;;;33.80;29.50;;;;;;5074910;28;20052;-82
2021/03/31 11:03:56;;;;;;;5.45;4.10;;;34.30;28.40;;;;;;5073963;28;20072;-83
2021/03/31 11:06:24;;;;;;;8.05;4.68;;;33.70;28.80;;;;;;5073907;28;20068;-82
2021/03/31 11:08:53;;;;;;;6.78;4.20;;;33.60;28.80;;;;;;5073739;28;20079;-83
2021/03/31 11:11:19;;;;;;;7.05;4.45;;;33.70;29.20;;;;;;5074862;28;20080;-82
2021/03/31 11:13:46;;;;;;;43.80;6.07;;;33.70;28.30;;;;;;5073353;28;20048;-83
2021/03/31 11:16:14;;;;;;;13.38;4.68;;;33.60;29.60;;;;;;5073829;28;20131;-83
2021/03/31 11:26:32;;;;;;;7.53;4.60;;;33.80;28.50;;;;;;5075777;28;20125;-83
2021/03/31 11:28:58;;;;;;;7.63;3.97;;;33.90;28.70;;;;;;5073409;28;20083;-83
2021/03/31 11:31:24;;;;;;;8.95;4.78;;;34.30;29.10;;;;;;5073947;28;20135;-83
2021/03/31 11:33:53;;;;;;;5.78;4.00;;;34.20;29.70;;;;;;5073272;28;20164;-83
2021/03/31 11:36:20;;;;;;;5.40;4.68;;;34.20;28.90;;;;;;5073763;28;20044;-83
2021/03/31 11:38:47;;;;;;;4.97;4.10;;;33.50;28.40;;;;;;5073460;28;20098;-82
2021/03/31 11:41:13;;;;;;;6.38;4.95;;;33.00;28.60;;;;;;5074461;28;20126;-82
2021/03/31 11:43:39;;;;;;;4.65;3.80;;;32.30;28.90;;;;;;5073525;28;20481;-84
2021/03/31 11:46:06;;;;;;;4.07;3.78;;;33.10;29.40;;;;;;5073895;28;20041;-83
2021/03/31 11:48:32;;;;;;;6.68;4.00;;;33.40;28.70;;;;;;5073175;28;20154;-82
2021/03/31 11:50:58;;;;;;;8.05;4.68;;;33.40;29.30;;;;;;5075020;28;20489;-83
2021/03/31 11:53:31;;;;;;;6.53;4.07;;;33.30;28.60;;;;;;5074086;28;20088;-82
2021/03/31 11:56:01;;;;;;;6.72;3.45;;;32.60;28.60;;;;;;5073266;28;20493;-82
2021/03/31 11:58:27;;;;;;;21.10;14.38;;;32.20;28.10;;;;;;5073317;28;20123;-83
2021/03/31 12:00:55;;;;;;;5.40;4.55;;;32.60;29.40;;;;;;5073961;28;20513;-82
2021/03/31 12:03:22;;;;;;;13.85;8.38;;;32.30;28.90;;;;;;5074365;28;20076;-83
2021/03/31 12:05:48;;;;;;;6.35;4.60;;;32.20;29.30;;;;;;5074479;28;20106;-83
2021/03/31 12:08:15;;;;;;;10.05;5.60;;;31.10;29.80;;;;;;5074079;28;20048;-83
2021/03/31 12:10:41;;;;;;;7.22;4.85;;;31.80;30.40;;;;;;5077544;28;20095;-82
2021/03/31 12:13:07;;;;;;;9.88;4.75;;;31.80;29.80;;;;;;5076561;28;20139;-82
2021/03/31 12:15:34;;;;;;;6.60;4.20;;;31.50;29.50;;;;;;5078122;28;20075;-83
2021/03/31 12:18:00;;;;;;;28.67;5.40;;;31.10;30.20;;;;;;5078774;28;20508;-83
2021/03/31 12:20:26;;;;;;;10.45;4.78;;;31.00;29.90;;;;;;5078160;28;20064;-82
2021/03/31 12:22:53;;;;;;;7.78;4.55;;;30.90;29.80;;;;;;5077570;28;20386;-83
2021/03/31 12:25:20;;;;;;;5.93;5.05;;;31.40;30.20;;;;;;5077328;28;20083;-83
2021/03/31 12:27:49;;;;;;;8.13;5.72;;;32.00;31.20;;;;;;5078826;28;20072;-83
2021/03/31 12:30:15;;;;;;;6.60;4.72;;;33.00;30.60;;;;;;5077650;28;20465;-82
2021/03/31 12:32:42;;;;;;;7.38;4.50;;;32.30;29.30;;;;;;5077232;28;20467;-82
2021/03/31 12:35:09;;;;;;;12.02;5.10;;;31.50;30.50;;;;;;5077183;28;20087;-82
2021/03/31 12:37:36;;;;;;;8.73;4.88;;;30.90;30.10;;;;;;5077516;28;20098;-83
2021/03/31 12:40:07;;;;;;;8.25;4.53;;;30.30;30.20;;;;;;5077798;28;20139;-82
2021/03/31 12:42:34;;;;;;;14.32;5.32;;;29.30;30.10;;;;;;5076399;28;20123;-83
2021/03/31 12:45:00;;;;;;;9.50;4.97;;;29.10;31.60;;;;;;5077011;28;20080;-83
2021/03/31 12:47:27;;;;;;;11.02;4.78;;;29.20;33.20;;;;;;5078695;28;20090;-84
2021/03/31 12:49:54;;;;;;;10.50;4.70;;;29.10;31.60;;;;;;5077524;28;20049;-83
2021/03/31 12:52:34;;;;;;;12.55;4.72;;;28.60;32.20;;;;;;5076580;28;20088;-83
2021/03/31 12:55:02;;;;;;;9.00;4.75;;;28.70;32.90;;;;;;5076825;28;20060;-82
2021/03/31 12:57:29;;;;;;;17.20;5.93;;;28.70;32.70;;;;;;5077438;28;20052;-83
2021/03/31 12:59:57;;;;;;;9.18;4.50;;;28.20;33.10;;;;;;5076823;28;20048;-83
2021/03/31 13:02:43;;;;;;;7.93;4.82;;;28.40;35.10;;;;;;5077684;28;20044;-83
2021/03/31 13:05:30;;;;;;;9.20;4.85;;;28.70;34.20;;;;;;5077531;28;20040;-83
2021/03/31 13:07:58;;;;;;;8.30;4.45;;;28.90;33.00;;;;;;5077113;28;20527;-83
2021/03/31 13:10:45;;;;;;;7.25;4.60;;;28.90;33.20;;;;;;5077673;28;20051;-84
2021/03/31 13:13:24;;;;;;;8.60;4.78;;;28.70;33.60;;;;;;5077709;28;20489;-83
2021/03/31 13:22:09;;;;;;;6.43;4.70;;;28.50;33.90;;;;;;5078690;28;20051;-84
2021/03/31 13:28:02;;;;;;;13.88;4.55;;;28.90;32.70;;;;;;5077967;28;20047;-84
2021/03/31 13:35:52;;;;;;;7.55;4.60;;;29.00;31.60;;;;;;5079463;28;20414;-83
2021/03/31 13:40:48;;;;;;;7.93;3.95;;;28.70;31.50;;;;;;5077506;28;20106;-83